createdAt,value
2022-08-20T00:01:57.408Z,18.50
2022-08-20T00:04:29.321Z,18.50
2022-08-20T00:07:01.077Z,18.40
2022-08-20T00:09:36.667Z,18.30
2022-08-20T00:12:10.198Z,18.30
2022-08-20T00:14:42.001Z,18.30
2022-08-20T00:17:13.865Z,18.20
2022-08-20T00:19:45.624Z,18.20
2022-08-20T00:22:17.530Z,18.20
2022-08-20T00:24:49.271Z,18.20
2022-08-20T00:27:21.024Z,18.20
2022-08-20T00:29:52.765Z,18.10
2022-08-20T00:32:24.789Z,18.10
2022-08-20T00:34:56.824Z,18.10
2022-08-20T00:37:28.572Z,18.10
2022-08-20T00:40:00.795Z,18.10
2022-08-20T00:42:52.150Z,18.10
2022-08-20T00:45:27.705Z,18.10
2022-08-20T00:47:59.601Z,18.10
2022-08-20T00:50:36.017Z,18.10
2022-08-20T00:53:08.767Z,18.00
2022-08-20T00:55:41.376Z,18.10
2022-08-20T00:58:13.154Z,17.90
2022-08-20T01:00:47.386Z,18.00
2022-08-20T01:03:20.484Z,18.00
2022-08-20T01:05:52.764Z,17.90
2022-08-20T01:08:26.622Z,17.90
2022-08-20T01:11:10.176Z,17.90
2022-08-20T01:13:44.045Z,17.90
2022-08-20T01:16:25.192Z,18.00
2022-08-20T01:19:00.993Z,18.00
2022-08-20T01:21:34.259Z,18.00
2022-08-20T01:24:15.441Z,17.90
2022-08-20T01:26:49.212Z,17.90
2022-08-20T01:29:25.331Z,17.90
2022-08-20T01:32:01.460Z,17.90
2022-08-20T01:34:33.656Z,17.90
2022-08-20T01:37:05.479Z,17.90
2022-08-20T01:39:37.515Z,17.90
2022-08-20T01:42:20.829Z,17.90
2022-08-20T01:44:52.871Z,17.80
2022-08-20T01:47:29.374Z,17.80
2022-08-20T01:50:14.795Z,17.80
2022-08-20T01:53:04.355Z,17.80
2022-08-20T01:55:37.609Z,17.80
2022-08-20T01:58:09.835Z,17.80
2022-08-20T02:00:42.484Z,17.80
2022-08-20T02:03:14.286Z,17.80
2022-08-20T02:05:46.021Z,17.70
2022-08-20T02:08:17.772Z,17.80
2022-08-20T02:10:49.540Z,17.80
2022-08-20T02:13:21.907Z,17.70
2022-08-20T02:15:53.976Z,17.80
2022-08-20T02:18:25.779Z,17.80
2022-08-20T02:20:57.548Z,17.80
2022-08-20T02:23:29.548Z,17.70
2022-08-20T02:26:01.320Z,17.70
2022-08-20T02:28:33.323Z,17.70
2022-08-20T02:31:08.425Z,17.70
2022-08-20T02:33:40.197Z,17.70
2022-08-20T02:36:14.123Z,17.60
2022-08-20T02:38:46.668Z,17.60
2022-08-20T02:41:18.628Z,17.60
2022-08-20T02:43:51.300Z,17.60
2022-08-20T02:46:23.062Z,17.60
2022-08-20T02:48:55.602Z,17.60
2022-08-20T02:51:28.655Z,17.70
2022-08-20T02:54:02.482Z,17.70
2022-08-20T02:56:34.471Z,17.60
2022-08-20T02:59:06.474Z,17.70
2022-08-20T03:01:39.024Z,17.70
2022-08-20T03:04:11.194Z,17.70
2022-08-20T03:06:42.929Z,17.70
2022-08-20T03:09:14.681Z,17.80
2022-08-20T03:11:46.459Z,17.80
2022-08-20T03:14:18.209Z,17.90
2022-08-20T03:16:50.179Z,17.90
2022-08-20T03:19:22.992Z,17.90
2022-08-20T03:21:54.720Z,17.90
2022-08-20T03:24:26.658Z,17.90
2022-08-20T03:26:58.573Z,17.90
2022-08-20T03:29:30.496Z,17.80
2022-08-20T03:32:06.006Z,17.80
2022-08-20T03:34:39.407Z,17.80
2022-08-20T03:37:11.679Z,17.80
2022-08-20T03:39:43.577Z,17.80
2022-08-20T03:42:15.354Z,17.80
2022-08-20T03:44:48.406Z,17.80
2022-08-20T03:47:30.524Z,17.70
2022-08-20T03:50:06.427Z,17.70
2022-08-20T03:52:38.305Z,17.80
2022-08-20T03:55:10.877Z,17.80
2022-08-20T03:57:54.988Z,17.80
2022-08-20T04:00:49.377Z,17.80
2022-08-20T04:03:22.337Z,17.90
2022-08-20T04:05:54.514Z,16.10
2022-08-20T04:08:29.432Z,17.80
2022-08-20T04:11:01.635Z,17.90
2022-08-20T04:13:33.436Z,17.90
2022-08-20T04:16:08.771Z,17.90
2022-08-20T04:18:56.250Z,17.90
2022-08-20T04:21:35.969Z,17.90
2022-08-20T04:24:07.791Z,17.90
2022-08-20T04:26:56.503Z,17.90
2022-08-20T04:29:31.909Z,17.90
2022-08-20T04:32:06.237Z,18.00
2022-08-20T04:34:38.603Z,16.80
2022-08-20T04:37:17.225Z,18.00
2022-08-20T04:40:09.294Z,18.00
2022-08-20T04:42:41.231Z,18.00
2022-08-20T04:45:15.461Z,18.00
2022-08-20T04:47:47.444Z,18.00
2022-08-20T04:50:20.480Z,18.00
2022-08-20T04:52:52.239Z,18.00
2022-08-20T04:55:23.965Z,18.00
2022-08-20T04:57:58.013Z,18.00
2022-08-20T05:00:31.643Z,18.00
2022-08-20T05:03:03.651Z,18.00
2022-08-20T05:05:35.808Z,18.00
2022-08-20T05:08:11.643Z,18.00
2022-08-20T05:10:54.131Z,18.00
2022-08-20T05:13:38.634Z,18.00
2022-08-20T05:16:10.378Z,18.00
2022-08-20T05:18:44.232Z,18.00
2022-08-20T05:21:21.265Z,18.00
2022-08-20T05:23:53.011Z,18.00
2022-08-20T05:26:26.424Z,18.00
2022-08-20T05:28:59.454Z,18.10
2022-08-20T05:31:33.583Z,18.10
2022-08-20T05:34:11.951Z,18.10
2022-08-20T05:36:48.204Z,18.10
2022-08-20T05:39:22.761Z,18.10
2022-08-20T05:41:54.559Z,18.00
2022-08-20T05:44:26.309Z,18.10
2022-08-20T05:46:58.111Z,18.10
2022-08-20T05:49:30.082Z,18.30
2022-08-20T05:52:01.849Z,18.40
2022-08-20T05:54:33.803Z,18.50
2022-08-20T05:57:05.548Z,18.50
2022-08-20T05:59:39.557Z,18.60
2022-08-20T06:02:31.363Z,18.70
2022-08-20T06:05:03.341Z,18.80
2022-08-20T06:07:35.097Z,18.80
2022-08-20T06:10:09.089Z,18.90
2022-08-20T06:12:40.840Z,18.90
2022-08-20T06:15:13.034Z,18.90
2022-08-20T06:17:45.328Z,18.90
2022-08-20T06:20:29.846Z,19.00
2022-08-20T06:23:02.119Z,19.00
2022-08-20T06:25:37.948Z,19.00
2022-08-20T06:28:10.157Z,19.00
2022-08-20T06:30:42.008Z,19.00
2022-08-20T06:33:13.850Z,19.00
2022-08-20T06:35:45.599Z,19.00
2022-08-20T06:38:17.534Z,19.00
2022-08-20T06:40:49.414Z,18.90
2022-08-20T06:43:22.131Z,18.90
2022-08-20T06:45:57.597Z,18.80
2022-08-20T06:48:29.344Z,18.80
2022-08-20T06:51:01.630Z,18.80
2022-08-20T06:53:33.750Z,18.80
2022-08-20T06:56:06.672Z,18.80
2022-08-20T06:58:38.949Z,18.80
2022-08-20T07:01:12.231Z,18.80
2022-08-20T07:03:54.336Z,18.90
2022-08-20T07:06:27.688Z,19.00
2022-08-20T07:08:59.656Z,19.00
2022-08-20T07:11:31.399Z,19.00
2022-08-20T07:14:05.357Z,19.10
2022-08-20T07:16:37.326Z,19.10
2022-08-20T07:19:09.509Z,19.20
2022-08-20T07:21:41.525Z,19.20
2022-08-20T07:24:13.566Z,19.20
2022-08-20T07:26:45.840Z,19.20
2022-08-20T07:29:21.664Z,19.30
2022-08-20T07:32:12.248Z,21.20
2022-08-20T07:34:44.789Z,19.40
2022-08-20T07:37:16.684Z,19.30
2022-08-20T07:39:52.874Z,19.40
2022-08-20T07:42:24.749Z,19.30
2022-08-20T07:44:56.637Z,19.20
2022-08-20T07:47:28.534Z,19.20
2022-08-20T07:50:00.337Z,19.30
2022-08-20T07:52:34.666Z,19.30
2022-08-20T07:55:12.617Z,19.30
2022-08-20T07:57:46.827Z,19.30
2022-08-20T08:00:21.914Z,19.30
2022-08-20T08:02:53.737Z,19.30
2022-08-20T08:05:25.777Z,19.30
2022-08-20T08:07:58.141Z,19.40
2022-08-20T08:10:29.965Z,19.40
2022-08-20T08:13:06.679Z,19.40
2022-08-20T08:15:43.900Z,19.40
2022-08-20T08:18:21.648Z,19.40
2022-08-20T08:20:54.576Z,19.50
2022-08-20T08:23:31.500Z,19.50
2022-08-20T08:26:04.209Z,19.40
2022-08-20T08:28:36.988Z,19.50
2022-08-20T08:31:08.811Z,19.50
2022-08-20T08:33:41.743Z,19.50
2022-08-20T08:36:15.718Z,19.60
2022-08-20T08:38:47.688Z,19.60
2022-08-20T08:41:40.048Z,19.60
2022-08-20T08:44:21.721Z,19.60
2022-08-20T08:47:18.271Z,19.70
2022-08-20T08:49:50.079Z,19.80
2022-08-20T08:52:26.058Z,19.80
2022-08-20T08:55:02.872Z,19.90
2022-08-20T08:57:34.628Z,19.80
2022-08-20T09:00:13.276Z,19.90
2022-08-20T09:03:02.639Z,19.80
2022-08-20T09:05:59.732Z,19.90
2022-08-20T09:08:38.144Z,20.00
2022-08-20T09:11:10.505Z,19.90
2022-08-20T09:13:43.275Z,19.80
2022-08-20T09:16:15.291Z,19.80
2022-08-20T09:18:47.056Z,19.80
2022-08-20T09:21:19.425Z,19.80
2022-08-20T09:23:51.345Z,19.80
2022-08-20T09:26:23.122Z,19.70
2022-08-20T09:29:00.892Z,19.80
2022-08-20T09:31:32.775Z,19.70
2022-08-20T09:34:05.228Z,19.70
2022-08-20T09:36:36.981Z,19.70
2022-08-20T09:39:09.962Z,19.60
2022-08-20T09:41:41.947Z,19.70
2022-08-20T09:44:13.700Z,19.70
2022-08-20T09:46:45.448Z,19.60
2022-08-20T09:49:17.164Z,19.60
2022-08-20T09:51:49.097Z,19.60
2022-08-20T09:54:22.003Z,19.50
2022-08-20T09:56:53.878Z,19.50
2022-08-20T09:59:28.176Z,19.50
2022-08-20T10:02:00.023Z,19.50
2022-08-20T10:04:31.937Z,19.40
2022-08-20T10:07:07.763Z,19.40
2022-08-20T10:09:40.027Z,19.30
2022-08-20T10:12:11.884Z,19.40
2022-08-20T10:14:43.673Z,19.40
2022-08-20T10:17:15.476Z,19.50
2022-08-20T10:19:47.481Z,19.50
2022-08-20T10:22:19.225Z,19.50
2022-08-20T10:24:51.004Z,19.50
2022-08-20T10:27:22.781Z,19.60
2022-08-20T10:29:54.523Z,19.60
2022-08-20T10:32:26.314Z,19.60
2022-08-20T10:34:58.187Z,19.60
2022-08-20T10:37:30.016Z,19.50
2022-08-20T10:40:03.256Z,19.40
2022-08-20T10:42:37.983Z,19.40
2022-08-20T10:45:15.841Z,19.50
2022-08-20T10:47:47.605Z,19.40
2022-08-20T10:50:20.059Z,19.50
2022-08-20T10:52:51.923Z,19.40
2022-08-20T10:55:24.895Z,19.40
2022-08-20T10:57:56.842Z,19.40
2022-08-20T11:00:28.688Z,19.40
2022-08-20T11:03:00.465Z,19.40
2022-08-20T11:05:32.229Z,19.40
2022-08-20T11:08:05.227Z,19.40
2022-08-20T11:10:38.397Z,19.40
2022-08-20T11:13:12.155Z,19.50
2022-08-20T11:15:44.478Z,19.60
2022-08-20T11:18:16.298Z,19.50
2022-08-20T11:20:48.043Z,19.60
2022-08-20T11:23:20.011Z,19.50
2022-08-20T11:25:51.829Z,19.60
2022-08-20T11:28:31.374Z,19.60
2022-08-20T11:31:04.427Z,19.50
2022-08-20T11:33:36.197Z,19.60
2022-08-20T11:36:08.337Z,19.60
2022-08-20T11:38:40.114Z,19.70
2022-08-20T11:41:11.936Z,19.70
2022-08-20T11:43:59.550Z,19.90
2022-08-20T11:46:35.479Z,19.90
2022-08-20T11:49:07.327Z,20.00
2022-08-20T11:51:49.393Z,20.20
2022-08-20T11:54:22.045Z,20.20
2022-08-20T11:56:53.804Z,20.10
2022-08-20T11:59:26.685Z,20.20
2022-08-20T12:02:02.945Z,20.30
2022-08-20T12:04:35.446Z,20.40
2022-08-20T12:07:15.434Z,20.50
2022-08-20T12:09:50.904Z,20.60
2022-08-20T12:12:24.180Z,20.60
2022-08-20T12:14:56.029Z,20.50
2022-08-20T12:17:30.124Z,20.60
2022-08-20T12:20:07.141Z,20.60
2022-08-20T12:22:39.516Z,20.70
2022-08-20T12:25:13.239Z,20.80
2022-08-20T12:27:46.283Z,20.80
2022-08-20T12:30:20.553Z,20.90
2022-08-20T12:32:52.523Z,20.80
2022-08-20T12:35:24.690Z,20.70
2022-08-20T12:37:56.426Z,20.70
2022-08-20T12:40:32.881Z,20.70
2022-08-20T12:43:05.321Z,20.70
2022-08-20T12:45:37.517Z,20.70
2022-08-20T12:48:13.086Z,20.60
2022-08-20T12:50:46.200Z,20.80
2022-08-20T12:53:18.093Z,20.80
2022-08-20T12:55:49.881Z,20.80
2022-08-20T12:58:21.750Z,20.90
2022-08-20T13:00:53.489Z,20.80
2022-08-20T13:03:25.232Z,20.80
2022-08-20T13:06:01.460Z,20.80
2022-08-20T13:08:33.207Z,20.80
2022-08-20T13:11:05.112Z,20.80
2022-08-20T13:13:37.141Z,20.90
2022-08-20T13:16:08.857Z,20.90
2022-08-20T13:18:40.593Z,20.90
2022-08-20T13:21:12.546Z,20.80
2022-08-20T13:23:44.338Z,20.70
2022-08-20T13:26:16.653Z,20.60
2022-08-20T13:28:48.397Z,20.70
2022-08-20T13:31:20.364Z,20.60
2022-08-20T13:33:53.795Z,20.60
2022-08-20T13:36:25.942Z,20.50
2022-08-20T13:38:57.948Z,20.60
2022-08-20T13:41:29.678Z,20.70
2022-08-20T13:44:01.497Z,19.00
2022-08-20T13:46:33.284Z,20.70
2022-08-20T13:49:05.115Z,20.80
2022-08-20T13:51:36.841Z,20.70
2022-08-20T13:54:10.810Z,20.80
2022-08-20T13:56:42.893Z,20.70
2022-08-20T13:59:15.438Z,20.80
2022-08-20T14:01:47.348Z,20.70
2022-08-20T14:04:19.143Z,20.70
2022-08-20T14:06:50.857Z,20.70
2022-08-20T14:09:22.654Z,20.80
2022-08-20T14:11:54.393Z,20.90
2022-08-20T14:14:26.263Z,21.00
2022-08-20T14:16:58.004Z,21.00
2022-08-20T14:19:29.733Z,21.10
2022-08-20T14:22:01.460Z,21.20
2022-08-20T14:24:33.205Z,21.20
2022-08-20T14:27:09.145Z,21.30
2022-08-20T14:29:42.815Z,21.30
2022-08-20T14:32:14.829Z,21.30
2022-08-20T14:34:47.389Z,21.30
2022-08-20T14:37:20.776Z,21.20
2022-08-20T14:39:56.830Z,21.30
2022-08-20T14:42:29.539Z,21.20
2022-08-20T14:45:04.952Z,21.30
2022-08-20T14:47:47.079Z,21.30
2022-08-20T14:50:29.909Z,21.30
2022-08-20T14:53:01.926Z,21.30
2022-08-20T14:55:37.402Z,21.30
2022-08-20T14:58:10.656Z,21.20
2022-08-20T15:00:43.497Z,21.20
2022-08-20T15:03:15.292Z,21.20
2022-08-20T15:05:47.015Z,21.20
2022-08-20T15:08:22.142Z,21.10
2022-08-20T15:11:00.139Z,21.00
2022-08-20T15:13:31.980Z,21.00
2022-08-20T15:16:04.021Z,21.00
2022-08-20T15:18:35.777Z,21.00
2022-08-20T15:21:10.316Z,21.00
2022-08-20T15:23:42.166Z,21.00
2022-08-20T15:26:14.066Z,20.90
2022-08-20T15:28:45.921Z,20.90
2022-08-20T15:31:17.666Z,21.00
2022-08-20T15:33:49.402Z,20.90
2022-08-20T15:36:21.255Z,20.90
2022-08-20T15:38:53.208Z,20.90
2022-08-20T15:41:30.216Z,20.90
2022-08-20T15:44:07.186Z,20.90
2022-08-20T15:46:39.689Z,20.90
2022-08-20T15:49:12.525Z,20.80
2022-08-20T15:51:49.503Z,20.80
2022-08-20T15:54:27.367Z,20.80
2022-08-20T15:57:02.536Z,20.70
2022-08-20T16:00:11.316Z,20.70
2022-08-20T16:03:05.500Z,20.70
2022-08-20T16:06:13.835Z,20.70
2022-08-20T16:09:01.732Z,20.70
2022-08-20T16:11:36.223Z,20.60
2022-08-20T16:14:26.976Z,20.60
2022-08-20T16:17:06.271Z,20.60
2022-08-20T16:19:59.176Z,20.60
2022-08-20T16:22:31.646Z,20.60
2022-08-20T16:25:04.693Z,20.60
2022-08-20T16:27:49.353Z,20.60
2022-08-20T16:30:50.202Z,20.50
2022-08-20T16:33:56.922Z,20.50
2022-08-20T16:37:03.153Z,20.40
2022-08-20T16:39:45.854Z,20.50
2022-08-20T16:42:24.206Z,20.30
2022-08-20T16:44:56.692Z,20.30
2022-08-20T16:47:35.655Z,20.40
2022-08-20T16:50:19.845Z,20.40
2022-08-20T16:52:52.625Z,20.30
2022-08-20T16:55:24.666Z,20.30
2022-08-20T16:57:56.962Z,20.40
2022-08-20T17:00:44.932Z,20.40
2022-08-20T17:03:31.438Z,20.30
2022-08-20T17:06:38.591Z,20.20
2022-08-20T17:09:14.555Z,20.10
2022-08-20T17:11:52.050Z,20.00
2022-08-20T17:14:24.341Z,19.90
2022-08-20T17:16:56.297Z,20.00
2022-08-20T17:19:30.781Z,19.80
2022-08-20T17:22:17.936Z,19.80
2022-08-20T17:24:49.865Z,19.80
2022-08-20T17:27:38.100Z,19.70
2022-08-20T17:30:19.853Z,19.60
2022-08-20T17:32:58.857Z,19.60
2022-08-20T17:35:43.211Z,19.50
2022-08-20T17:38:46.531Z,19.50
2022-08-20T17:41:26.260Z,19.40
2022-08-20T17:44:23.468Z,19.40
2022-08-20T17:46:57.439Z,19.30
2022-08-20T17:50:02.215Z,19.20
2022-08-20T17:52:43.973Z,19.20
2022-08-20T17:55:15.735Z,19.10
2022-08-20T17:57:52.788Z,19.10
2022-08-20T18:00:28.263Z,19.10
2022-08-20T18:03:08.657Z,19.10
2022-08-20T18:05:40.475Z,19.20
2022-08-20T18:08:33.234Z,19.20
2022-08-20T18:11:24.912Z,19.20
2022-08-20T18:14:38.697Z,19.10
2022-08-20T18:17:42.159Z,19.00
2022-08-20T18:20:39.484Z,19.00
2022-08-20T18:23:20.442Z,18.90
2022-08-20T18:25:57.608Z,18.90
2022-08-20T18:28:50.114Z,18.90
2022-08-20T18:31:40.348Z,18.90
2022-08-20T18:34:16.019Z,18.90
2022-08-20T18:37:04.540Z,18.90
2022-08-20T18:39:41.842Z,18.80
2022-08-20T18:42:33.748Z,18.80
2022-08-20T18:45:06.589Z,18.80
2022-08-20T18:47:38.299Z,18.80
2022-08-20T18:50:16.853Z,18.80
2022-08-20T18:53:04.909Z,18.80
2022-08-20T18:55:58.968Z,18.80
2022-08-20T18:58:49.052Z,18.80
2022-08-20T19:01:21.250Z,18.80
2022-08-20T19:03:55.785Z,18.80
2022-08-20T19:06:57.280Z,18.80
2022-08-20T19:09:41.204Z,18.70
2022-08-20T19:12:43.558Z,18.70
2022-08-20T19:15:18.838Z,18.70
2022-08-20T19:18:02.438Z,18.70
2022-08-20T19:20:38.541Z,18.70
2022-08-20T19:23:18.537Z,18.80
2022-08-20T19:26:02.569Z,18.70
2022-08-20T19:28:52.232Z,18.80
2022-08-20T19:31:31.052Z,18.70
2022-08-20T19:34:22.141Z,18.70
2022-08-20T19:37:27.821Z,18.70
2022-08-20T19:39:58.988Z,18.70
2022-08-20T19:42:33.539Z,18.70
2022-08-20T19:45:08.956Z,18.70
2022-08-20T19:48:04.664Z,18.80
2022-08-20T19:50:36.509Z,18.80
2022-08-20T19:53:30.742Z,18.70
2022-08-20T19:56:17.880Z,18.70
2022-08-20T19:59:04.492Z,18.70
2022-08-20T20:01:36.977Z,18.70
2022-08-20T20:04:17.903Z,18.70
2022-08-20T20:06:50.074Z,18.70
2022-08-20T20:09:26.118Z,18.70
2022-08-20T20:12:02.769Z,18.60
2022-08-20T20:14:37.137Z,18.60
2022-08-20T20:17:14.991Z,18.60
2022-08-20T20:19:48.873Z,18.70
2022-08-20T20:22:31.198Z,18.60
2022-08-20T20:25:37.105Z,18.60
2022-08-20T20:28:20.208Z,18.60
2022-08-20T20:30:52.003Z,18.60
2022-08-20T20:33:43.395Z,18.60
2022-08-20T20:36:18.568Z,18.60
2022-08-20T20:39:01.071Z,18.60
2022-08-20T20:41:34.510Z,18.60
2022-08-20T20:44:28.681Z,18.60
2022-08-20T20:47:03.141Z,18.60
2022-08-20T20:49:58.581Z,18.60
2022-08-20T20:52:33.949Z,18.60
2022-08-20T20:55:25.629Z,18.50
2022-08-20T20:57:58.693Z,18.60
2022-08-20T21:00:34.014Z,18.50
2022-08-20T21:03:05.789Z,18.50
2022-08-20T21:05:39.027Z,18.50
2022-08-20T21:08:11.676Z,18.50
2022-08-20T21:10:43.774Z,18.50
2022-08-20T21:13:16.405Z,18.50
2022-08-20T21:15:48.214Z,18.50
2022-08-20T21:18:24.114Z,18.50
2022-08-20T21:20:58.340Z,18.50
2022-08-20T21:23:39.611Z,18.50
2022-08-20T21:26:12.386Z,18.50
2022-08-20T21:28:44.288Z,18.50
2022-08-20T21:31:16.109Z,18.40
2022-08-20T21:33:47.906Z,18.40
2022-08-20T21:36:19.674Z,18.40
2022-08-20T21:38:51.516Z,18.40
2022-08-20T21:41:29.418Z,18.40
2022-08-20T21:44:26.177Z,18.40
2022-08-20T21:46:58.494Z,16.50
2022-08-20T21:49:31.816Z,18.40
2022-08-20T21:52:03.879Z,18.40
2022-08-20T21:54:35.620Z,18.40
2022-08-20T21:57:29.884Z,18.40
2022-08-20T22:00:11.345Z,18.30
2022-08-20T22:02:43.151Z,18.30
2022-08-20T22:05:15.775Z,18.30
2022-08-20T22:07:47.537Z,18.30
2022-08-20T22:10:19.423Z,18.30
2022-08-20T22:12:51.261Z,18.30
2022-08-20T22:15:23.084Z,18.30
2022-08-20T22:17:55.045Z,18.30
2022-08-20T22:20:27.455Z,18.30
2022-08-20T22:23:01.965Z,18.30
2022-08-20T22:25:34.416Z,18.20
2022-08-20T22:28:06.176Z,18.20
2022-08-20T22:30:41.774Z,18.30
2022-08-20T22:33:19.748Z,18.20
2022-08-20T22:35:55.071Z,18.20
2022-08-20T22:38:27.134Z,18.20
2022-08-20T22:40:58.905Z,18.20
2022-08-20T22:43:30.691Z,18.20
2022-08-20T22:46:03.528Z,18.20
2022-08-20T22:48:36.056Z,18.20
2022-08-20T22:51:08.780Z,18.20
2022-08-20T22:53:43.008Z,18.10
2022-08-20T22:56:19.661Z,18.10
2022-08-20T22:58:51.905Z,18.10
2022-08-20T23:01:25.063Z,18.10
2022-08-20T23:04:28.580Z,18.10
2022-08-20T23:07:01.738Z,18.10
2022-08-20T23:09:33.489Z,18.10
2022-08-20T23:12:06.164Z,18.10
2022-08-20T23:14:38.393Z,18.10
2022-08-20T23:17:19.522Z,18.10
2022-08-20T23:19:51.758Z,18.10
2022-08-20T23:22:23.675Z,18.00
2022-08-20T23:24:59.867Z,18.00
2022-08-20T23:27:35.319Z,18.00
2022-08-20T23:30:07.932Z,18.00
2022-08-20T23:32:39.713Z,18.00
2022-08-20T23:35:12.187Z,18.00
2022-08-20T23:37:51.783Z,18.00
2022-08-20T23:40:28.381Z,17.90
2022-08-20T23:43:00.663Z,17.90
2022-08-20T23:45:33.318Z,17.90
2022-08-20T23:48:05.310Z,17.90
2022-08-20T23:50:37.843Z,17.80
2022-08-20T23:53:09.893Z,17.80
2022-08-20T23:55:41.653Z,17.80
2022-08-20T23:58:13.485Z,17.70
